Time;durP1;ratioP1;P1;durP2;ratioP2;P2;SDS_P1;SDS_P2;PMS_P1;PMS_P2;Temp;Humidity;BMP_temperature;BMP_pressure;BME280_temperature;BME280_humidity;BME280_pressure;Samples;Min_cycle;Max_cycle;Signal;HPM_P1;HPM_P2
2021/06/07 00:00:07;;;;;;;11.18;7.55;;;;;;;14.31;100.00;96168.84;1020654;29;20074;-67
2021/06/07 00:00:38;;;;;;;9.90;7.03;;;;;;;14.29;100.00;96170.97;1022692;29;20032;-67
2021/06/07 00:01:09;;;;;;;9.10;7.07;;;;;;;14.28;100.00;96158.03;1026063;28;20027;-67
2021/06/07 00:01:45;;;;;;;7.97;6.78;;;;;;;14.28;100.00;96165.97;1026705;28;20015;-66
2021/06/07 00:02:17;;;;;;;7.82;6.57;;;;;;;14.27;100.00;96170.44;1026806;28;20019;-66
2021/06/07 00:02:48;;;;;;;12.52;8.32;;;;;;;14.29;100.00;96165.69;1034728;28;20021;-67
2021/06/07 00:03:18;;;;;;;9.02;7.00;;;;;;;14.30;100.00;96156.72;1026898;28;20381;-66
2021/06/07 00:03:49;;;;;;;10.05;8.15;;;;;;;14.32;100.00;96161.72;1030889;28;20019;-66
2021/06/07 00:04:19;;;;;;;7.60;5.47;;;;;;;14.31;100.00;96174.13;1034898;28;20812;-65
2021/06/07 00:04:50;;;;;;;9.00;7.30;;;;;;;14.32;100.00;96165.16;1018769;29;20023;-67
2021/06/07 00:05:21;;;;;;;6.93;6.22;;;;;;;14.32;100.00;96165.16;1026707;28;20118;-67
2021/06/07 00:05:52;;;;;;;6.35;5.75;;;;;;;14.28;100.00;96164.09;1022911;29;20480;-67
2021/06/07 00:06:22;;;;;;;9.32;6.95;;;;;;;14.29;100.00;96165.69;1022876;29;20315;-67
2021/06/07 00:06:53;;;;;;;10.32;8.07;;;;;;;14.29;100.00;96163.06;1022658;29;20016;-68
2021/06/07 00:07:24;;;;;;;11.65;7.20;;;;;;;14.30;100.00;96162.00;1026788;28;20404;-67
2021/06/07 00:07:54;;;;;;;8.82;7.70;;;;;;;14.33;100.00;96160.66;1019033;29;20023;-67
2021/06/07 00:08:25;;;;;;;9.30;7.38;;;;;;;14.32;100.00;96165.16;1018472;29;20055;-67
2021/06/07 00:08:55;;;;;;;10.10;8.40;;;;;;;14.30;100.00;96156.72;1018972;29;20022;-67
2021/06/07 00:09:26;;;;;;;11.48;7.45;;;;;;;14.32;100.00;96159.09;1022864;29;20026;-68
2021/06/07 00:09:56;;;;;;;12.50;8.18;;;;;;;14.32;100.00;96162.50;1026961;28;20019;-67
2021/06/07 00:10:27;;;;;;;11.82;7.72;;;;;;;14.33;100.00;96166.72;1025583;28;20492;-67
2021/06/07 00:10:58;;;;;;;11.02;8.10;;;;;;;14.33;100.00;96161.44;1022195;29;20027;-66
2021/06/07 00:11:28;;;;;;;11.27;8.15;;;;;;;14.33;100.00;96160.66;1026571;28;20489;-67
2021/06/07 00:12:04;;;;;;;9.35;7.03;;;;;;;14.29;100.00;96154.34;1025220;28;20058;-67
2021/06/07 00:12:34;;;;;;;11.95;7.63;;;;;;;14.31;100.00;96158.28;1022825;29;20027;-67
2021/06/07 00:13:06;;;;;;;18.23;7.00;;;;;;;14.27;100.00;96146.69;1026672;28;20068;-67
2021/06/07 00:13:39;;;;;;;11.48;8.15;;;;;;;14.34;100.00;96162.22;1022766;29;20039;-66
2021/06/07 00:14:10;;;;;;;12.57;8.77;;;;;;;14.34;100.00;96157.72;1022992;29;20485;-67
2021/06/07 00:14:40;;;;;;;11.57;8.40;;;;;;;14.34;100.00;96155.09;1030775;28;20126;-66
2021/06/07 00:15:12;;;;;;;14.43;10.52;;;;;;;14.36;100.00;96160.88;1030722;28;20026;-67
2021/06/07 00:15:43;;;;;;;11.10;8.35;;;;;;;14.38;100.00;96160.59;1026845;28;20057;-66
2021/06/07 00:16:13;;;;;;;11.85;8.00;;;;;;;14.38;100.00;96158.78;1027478;28;20061;-67
2021/06/07 00:16:44;;;;;;;15.20;8.73;;;;;;;14.37;100.00;96157.19;1022857;29;20027;-67
2021/06/07 00:17:14;;;;;;;8.70;7.43;;;;;;;14.35;100.00;96156.69;1029535;28;20533;-66
2021/06/07 00:17:45;;;;;;;7.28;6.55;;;;;;;14.34;100.00;96152.44;1030788;28;20065;-67
2021/06/07 00:18:15;;;;;;;7.10;6.30;;;;;;;14.35;100.00;96159.31;1022947;29;20543;-66
2021/06/07 00:18:46;;;;;;;10.48;7.45;;;;;;;14.35;100.00;96164.59;1022558;28;20038;-67
2021/06/07 00:19:17;;;;;;;8.45;7.65;;;;;;;14.36;100.00;96160.09;1026342;28;20094;-67
2021/06/07 00:19:48;;;;;;;8.63;7.63;;;;;;;14.38;100.00;96158.78;1030741;28;20026;-67
2021/06/07 00:20:40;;;;;;;7.38;6.68;;;;;;;14.38;100.00;96163.25;1026856;28;20039;-65
2021/06/07 00:21:21;;;;;;;7.32;6.63;;;;;;;14.38;100.00;96163.25;1022152;29;20066;-66
2021/06/07 00:21:52;;;;;;;7.55;5.80;;;;;;;14.37;100.00;96159.81;1019129;29;20038;-66
2021/06/07 00:22:22;;;;;;;9.25;6.93;;;;;;;14.35;100.00;96158.50;1025779;28;20460;-67
2021/06/07 00:22:53;;;;;;;8.00;6.68;;;;;;;14.33;100.00;96158.78;1022593;29;20027;-66
2021/06/07 00:23:24;;;;;;;10.70;6.60;;;;;;;14.34;100.00;96156.94;1022720;29;20024;-68
2021/06/07 00:23:57;;;;;;;9.20;6.63;;;;;;;14.36;100.00;96162.75;1014918;29;20497;-67
2021/06/07 00:24:28;;;;;;;8.00;6.60;;;;;;;14.37;100.00;96156.38;1014912;29;20055;-66
2021/06/07 00:25:03;;;;;;;14.43;8.18;;;;;;;14.35;100.00;96153.22;1018973;29;20019;-68
2021/06/07 00:25:33;;;;;;;8.70;7.05;;;;;;;14.39;100.00;96157.69;1022548;29;20027;-66
2021/06/07 00:26:05;;;;;;;11.50;7.78;;;;;;;14.39;100.00;96160.34;1022878;29;20027;-68
2021/06/07 00:26:35;;;;;;;8.07;7.22;;;;;;;14.39;100.00;96167.47;1026301;28;20045;-66
2021/06/07 00:27:06;;;;;;;7.95;7.15;;;;;;;14.38;100.00;96156.13;1022718;29;20058;-67
2021/06/07 00:27:36;;;;;;;10.02;8.27;;;;;;;14.37;100.00;96162.44;1018698;29;20027;-67
2021/06/07 00:28:07;;;;;;;11.95;8.65;;;;;;;14.39;100.00;96152.41;1018873;29;20377;-66
2021/06/07 00:28:37;;;;;;;11.02;8.27;;;;;;;14.41;100.00;96161.91;1022841;29;20016;-67
2021/06/07 00:29:08;;;;;;;9.30;7.30;;;;;;;14.37;100.00;96154.53;1026505;28;20130;-67
2021/06/07 00:29:38;;;;;;;8.38;7.05;;;;;;;14.36;100.00;96150.31;1025137;28;20030;-67
2021/06/07 00:30:10;;;;;;;12.23;7.88;;;;;;;14.39;100.00;96160.34;1026742;28;20023;-67
2021/06/07 00:30:40;;;;;;;7.97;6.47;;;;;;;14.40;100.00;96161.13;1018496;29;20455;-66
2021/06/07 00:31:11;;;;;;;11.82;8.43;;;;;;;14.42;100.00;96158.19;1028203;28;20025;-65
2021/06/07 00:31:44;;;;;;;7.70;6.93;;;;;;;14.42;100.00;96158.19;1026655;28;20027;-67
2021/06/07 00:32:17;;;;;;;10.70;7.22;;;;;;;14.42;100.00;96158.19;1030944;28;20069;-66
2021/06/07 00:32:48;;;;;;;9.30;7.88;;;;;;;14.43;100.00;96157.16;1022500;29;20031;-66
2021/06/07 00:33:18;;;;;;;10.63;7.93;;;;;;;14.39;100.00;96164.84;1026879;28;20031;-66
2021/06/07 00:33:52;;;;;;;10.98;7.50;;;;;;;14.40;100.00;96163.75;1018789;29;20097;-66
2021/06/07 00:34:22;;;;;;;9.13;7.15;;;;;;;14.41;100.00;96164.53;1026749;28;20019;-67
2021/06/07 00:34:52;;;;;;;8.35;7.07;;;;;;;14.41;100.00;96161.91;1018721;29;20055;-67
2021/06/07 00:35:26;;;;;;;9.02;7.22;;;;;;;14.39;100.00;96164.84;1018787;29;20046;-66
2021/06/07 00:35:57;;;;;;;10.00;8.20;;;;;;;14.34;100.00;96156.94;1014871;29;20122;-67
2021/06/07 00:36:27;;;;;;;9.48;7.13;;;;;;;14.36;100.00;96166.16;1017719;29;20569;-67
2021/06/07 00:36:58;;;;;;;7.78;6.63;;;;;;;14.37;100.00;96167.75;1018889;29;20114;-68
2021/06/07 00:37:28;;;;;;;9.52;7.25;;;;;;;14.36;100.00;96160.88;1022748;28;20042;-67
2021/06/07 00:37:59;;;;;;;10.30;7.32;;;;;;;14.37;100.00;96159.81;1022716;28;20054;-66
2021/06/07 00:38:29;;;;;;;7.60;6.47;;;;;;;14.37;100.00;96166.94;1022693;29;20367;-68
2021/06/07 00:39:00;;;;;;;7.90;7.10;;;;;;;14.36;100.00;96163.53;1026925;28;20542;-66
2021/06/07 00:39:30;;;;;;;6.95;6.25;;;;;;;14.38;100.00;96165.88;1022514;28;20023;-66
2021/06/07 00:40:01;;;;;;;7.32;6.57;;;;;;;14.37;100.00;96167.75;1026809;28;20042;-65
2021/06/07 00:40:31;;;;;;;8.45;6.68;;;;;;;14.37;100.00;96165.09;1030629;28;20054;-67
2021/06/07 00:41:04;;;;;;;10.15;7.03;;;;;;;14.36;100.00;96165.38;1018326;29;20028;-66
2021/06/07 00:41:35;;;;;;;7.85;7.05;;;;;;;14.28;100.00;96153.53;1022438;28;20031;-66
2021/06/07 00:42:09;;;;;;;10.10;7.28;;;;;;;14.31;100.00;96153.00;1026675;28;20381;-67
2021/06/07 00:42:39;;;;;;;7.38;6.68;;;;;;;14.34;100.00;96160.38;1026670;28;20019;-66
2021/06/07 00:43:10;;;;;;;7.10;6.32;;;;;;;14.37;100.00;96165.09;1020866;28;20058;-67
2021/06/07 00:43:40;;;;;;;8.70;7.35;;;;;;;14.37;100.00;96164.31;1030724;28;20041;-67
2021/06/07 00:44:13;;;;;;;7.22;6.38;;;;;;;14.37;100.00;96159.81;1022770;29;20054;-65
2021/06/07 00:44:46;;;;;;;8.93;7.18;;;;;;;14.38;100.00;96158.78;1022419;29;20077;-66
2021/06/07 00:45:19;;;;;;;7.72;6.60;;;;;;;14.34;100.00;96152.44;1026909;28;20052;-67
2021/06/07 00:45:49;;;;;;;8.88;6.65;;;;;;;14.35;100.00;96147.94;1030708;28;20088;-66
2021/06/07 00:46:20;;;;;;;9.88;6.60;;;;;;;14.39;100.00;96164.84;1022503;29;20479;-67
2021/06/07 00:46:50;;;;;;;9.25;7.75;;;;;;;14.39;100.00;96159.56;1018601;29;20036;-66
2021/06/07 00:47:24;;;;;;;11.95;9.02;;;;;;;14.39;100.00;96159.56;1026787;28;20050;-66
2021/06/07 00:47:57;;;;;;;8.80;7.80;;;;;;;14.40;100.00;96166.41;1029140;28;20649;-67
2021/06/07 00:48:28;;;;;;;9.93;8.20;;;;;;;14.39;100.00;96157.69;1022358;28;20042;-64
2021/06/07 00:49:00;;;;;;;15.65;9.85;;;;;;;14.41;100.00;96157.41;1029798;28;20106;-66
2021/06/07 00:49:30;;;;;;;22.63;12.07;;;;;;;14.41;100.00;96161.91;1030693;28;20069;-66
2021/06/07 00:50:01;;;;;;;11.63;8.13;;;;;;;14.42;100.00;96155.56;1025356;28;20058;-66
2021/06/07 00:50:33;;;;;;;10.07;7.72;;;;;;;14.45;100.00;96158.44;1026563;28;20054;-67
2021/06/07 00:51:08;;;;;;;10.95;7.85;;;;;;;14.38;100.00;96158.78;1021597;29;20034;-67
2021/06/07 00:51:39;;;;;;;8.55;6.75;;;;;;;14.37;100.00;96151.91;1019529;29;20051;-67
2021/06/07 00:52:12;;;;;;;8.82;7.45;;;;;;;14.42;100.00;96166.13;1022487;28;20075;-67
2021/06/07 00:53:02;;;;;;;8.60;7.50;;;;;;;14.34;100.00;96152.44;1030587;28;20495;-67
2021/06/07 00:53:33;;;;;;;10.90;8.20;;;;;;;14.39;100.00;96160.34;1026724;28;20117;-67
2021/06/07 00:54:04;;;;;;;10.48;7.65;;;;;;;14.40;100.00;96161.13;1022878;28;20930;-67
2021/06/07 00:54:34;;;;;;;9.15;7.88;;;;;;;14.39;100.00;96162.97;1022667;28;20109;-66
2021/06/07 00:55:05;;;;;;;11.32;8.52;;;;;;;14.39;100.00;96160.34;1022768;29;20140;-65
2021/06/07 00:55:50;;;;;;;10.32;8.38;;;;;;;14.40;100.00;96155.84;1016408;29;20046;-66
2021/06/07 00:56:21;;;;;;;11.38;8.45;;;;;;;14.40;100.00;96161.13;1019797;29;20449;-67
2021/06/07 00:56:51;;;;;;;20.88;12.63;;;;;;;14.41;100.00;96156.63;1018480;29;20051;-66
2021/06/07 00:57:22;;;;;;;34.53;16.63;;;;;;;14.41;100.00;96164.53;1022787;29;20034;-66
2021/06/07 00:57:53;;;;;;;30.10;15.43;;;;;;;14.41;100.00;96157.41;1026755;28;20527;-66
2021/06/07 00:58:26;;;;;;;13.27;8.90;;;;;;;14.39;100.00;96160.34;1026175;28;20488;-66
2021/06/07 00:58:56;;;;;;;17.70;11.23;;;;;;;14.41;100.00;96160.06;1022583;28;20027;-66
2021/06/07 00:59:27;;;;;;;14.00;10.30;;;;;;;14.42;100.00;96164.28;1022732;29;20054;-66
2021/06/07 00:59:57;;;;;;;13.30;9.00;;;;;;;14.43;100.00;96154.50;1018498;29;20028;-67
2021/06/07 01:00:28;;;;;;;10.70;8.20;;;;;;;14.39;100.00;96155.06;1022753;29;20038;-66
2021/06/07 01:00:59;;;;;;;13.15;7.75;;;;;;;14.42;100.00;96159.00;1038172;28;20037;-66
2021/06/07 01:01:30;;;;;;;11.05;8.07;;;;;;;14.43;100.00;96160.56;1030086;28;20026;-65
2021/06/07 01:02:00;;;;;;;14.40;8.85;;;;;;;14.41;100.00;96152.13;1026684;28;20041;-66
2021/06/07 01:02:31;;;;;;;10.25;8.15;;;;;;;14.43;100.00;96157.16;1026654;28;20018;-66
2021/06/07 01:03:04;;;;;;;9.88;7.50;;;;;;;14.44;100.00;96153.44;1022211;28;20039;-64
2021/06/07 01:03:35;;;;;;;11.43;8.48;;;;;;;14.41;100.00;96159.25;1018862;29;20465;-66
2021/06/07 01:04:06;;;;;;;12.00;9.13;;;;;;;14.39;100.00;96155.06;1022710;29;20060;-63
2021/06/07 01:04:36;;;;;;;9.68;7.75;;;;;;;14.38;100.00;96153.50;1026590;28;20119;-66
2021/06/07 01:05:07;;;;;;;12.85;8.45;;;;;;;14.38;100.00;96157.97;1026011;28;20039;-66
2021/06/07 01:05:38;;;;;;;9.70;7.95;;;;;;;14.37;100.00;96151.13;1018806;29;20067;-66
2021/06/07 01:06:08;;;;;;;8.55;7.75;;;;;;;14.39;100.00;96156.91;1030680;28;20035;-66
2021/06/07 01:06:39;;;;;;;10.48;8.05;;;;;;;14.38;100.00;96153.50;1030209;28;20034;-66
2021/06/07 01:07:09;;;;;;;11.05;8.10;;;;;;;14.37;100.00;96151.91;1030551;28;20523;-65
2021/06/07 01:07:40;;;;;;;12.45;9.18;;;;;;;14.35;100.00;96154.03;1018760;29;20038;-66
2021/06/07 01:08:10;;;;;;;9.68;8.23;;;;;;;14.36;100.00;96152.97;1030321;28;20484;-67
2021/06/07 01:08:41;;;;;;;11.82;8.98;;;;;;;14.36;100.00;96160.88;1030604;28;20065;-66
2021/06/07 01:09:11;;;;;;;9.80;7.78;;;;;;;14.36;100.00;96155.59;1034621;28;20104;-66
2021/06/07 01:09:42;;;;;;;10.70;8.48;;;;;;;14.36;100.00;96152.19;1030572;28;20030;-66
2021/06/07 01:10:12;;;;;;;11.13;8.63;;;;;;;14.34;100.00;96154.31;1030107;28;20018;-65
2021/06/07 01:10:43;;;;;;;10.27;8.00;;;;;;;14.36;100.00;96149.53;1018750;29;20031;-66
2021/06/07 01:11:14;;;;;;;13.05;9.00;;;;;;;14.39;100.00;96154.28;1021875;29;20026;-66
2021/06/07 01:11:44;;;;;;;10.48;8.00;;;;;;;14.33;100.00;96150.09;1025928;28;20465;-64
2021/06/07 01:12:15;;;;;;;13.63;8.45;;;;;;;14.37;100.00;96153.75;1026768;28;20429;-66
2021/06/07 01:12:45;;;;;;;18.30;9.35;;;;;;;14.37;100.00;96154.53;1030136;28;20038;-65
2021/06/07 01:13:16;;;;;;;20.10;11.88;;;;;;;14.38;100.00;96161.41;1026118;28;20026;-65
2021/06/07 01:13:46;;;;;;;18.27;10.73;;;;;;;14.38;100.00;96153.50;1026397;28;20124;-66
2021/06/07 01:14:17;;;;;;;21.33;12.48;;;;;;;14.39;100.00;96154.28;1026848;28;20035;-65
2021/06/07 01:14:48;;;;;;;12.27;8.38;;;;;;;14.36;100.00;96142.41;1030404;28;20053;-66
2021/06/07 01:15:18;;;;;;;17.35;9.98;;;;;;;14.38;100.00;96153.50;1025367;28;20093;-67
2021/06/07 01:15:52;;;;;;;26.90;13.25;;;;;;;14.38;100.00;96150.84;1026388;28;20431;-66
2021/06/07 01:16:22;;;;;;;23.83;14.05;;;;;;;14.37;100.00;96151.91;1026706;28;20643;-66
2021/06/07 01:16:53;;;;;;;21.95;12.35;;;;;;;14.38;100.00;96153.50;1026122;28;20102;-66
2021/06/07 01:17:26;;;;;;;12.77;8.70;;;;;;;14.38;100.00;96156.13;1022703;29;20070;-66
2021/06/07 01:17:57;;;;;;;17.17;10.80;;;;;;;14.39;100.00;96152.41;1022590;29;20470;-66
2021/06/07 01:18:30;;;;;;;13.00;9.20;;;;;;;14.37;100.00;96148.47;1018522;29;20444;-65
2021/06/07 01:19:00;;;;;;;19.20;10.40;;;;;;;14.38;100.00;96148.22;1022541;29;20026;-66
2021/06/07 01:19:31;;;;;;;13.02;9.27;;;;;;;14.36;100.00;96146.91;1022601;29;20031;-67
2021/06/07 01:20:03;;;;;;;16.00;9.73;;;;;;;14.32;100.00;96141.38;1026688;28;20023;-66
2021/06/07 01:20:34;;;;;;;21.60;11.18;;;;;;;14.35;100.00;96148.75;1014671;29;20028;-67
2021/06/07 01:21:15;;;;;;;17.00;10.38;;;;;;;14.38;100.00;96150.84;1029943;28;20054;-65
2021/06/07 01:21:46;;;;;;;20.45;11.65;;;;;;;14.38;100.00;96147.41;1022164;28;20345;-65
2021/06/07 01:22:16;;;;;;;15.52;10.30;;;;;;;14.39;100.00;96147.13;1026247;28;20073;-66
2021/06/07 01:22:47;;;;;;;14.38;10.27;;;;;;;14.36;100.00;96152.97;1026538;28;20038;-67
2021/06/07 01:23:18;;;;;;;18.73;11.25;;;;;;;14.35;100.00;96146.13;1026633;28;20062;-66
2021/06/07 01:23:49;;;;;;;18.90;11.40;;;;;;;14.35;100.00;96153.22;1016821;29;20536;-66
2021/06/07 01:24:19;;;;;;;16.77;10.77;;;;;;;14.26;100.00;96139.84;1022676;29;20065;-66
2021/06/07 01:24:50;;;;;;;23.38;12.25;;;;;;;14.31;100.00;96147.72;1022491;29;20035;-67
2021/06/07 01:25:23;;;;;;;22.52;12.43;;;;;;;14.31;100.00;96142.44;1019510;29;20043;-66
2021/06/07 01:25:57;;;;;;;21.55;12.82;;;;;;;14.33;100.00;96150.88;1018483;29;20138;-66
2021/06/07 01:26:27;;;;;;;20.85;11.95;;;;;;;14.32;100.00;96144.03;1022741;29;20035;-67
2021/06/07 01:26:57;;;;;;;17.08;10.02;;;;;;;14.33;100.00;96150.09;1022006;28;20098;-66
2021/06/07 01:27:28;;;;;;;17.52;11.80;;;;;;;14.32;100.00;96151.94;1022625;29;20584;-66
2021/06/07 01:27:59;;;;;;;16.27;11.00;;;;;;;14.27;100.00;96145.91;1022584;28;20027;-66
2021/06/07 01:28:29;;;;;;;12.98;9.23;;;;;;;14.26;100.00;96141.69;1022772;29;20027;-66
2021/06/07 01:29:02;;;;;;;16.23;10.35;;;;;;;14.30;100.00;96148.00;1022171;28;20058;-66
2021/06/07 01:29:33;;;;;;;15.60;10.52;;;;;;;14.29;100.00;96149.84;1030504;28;20033;-66
2021/06/07 01:30:11;;;;;;;12.63;9.45;;;;;;;14.31;100.00;96152.22;1034611;28;20109;-66
2021/06/07 01:30:44;;;;;;;16.65;11.32;;;;;;;14.29;100.00;96141.94;1022566;29;20115;-66
2021/06/07 01:31:17;;;;;;;16.50;11.43;;;;;;;14.25;100.00;96142.75;1025901;28;20082;-66
2021/06/07 01:31:48;;;;;;;14.23;9.60;;;;;;;14.32;100.00;96146.66;1026682;28;20042;-67
2021/06/07 01:32:21;;;;;;;24.15;13.10;;;;;;;14.33;100.00;96145.59;1026388;28;20070;-66
2021/06/07 01:32:52;;;;;;;9.88;8.23;;;;;;;14.32;100.00;96149.31;1021928;28;20031;-66
2021/06/07 01:33:23;;;;;;;10.43;8.27;;;;;;;14.34;100.00;96146.38;1022636;29;20039;-65
2021/06/07 01:33:54;;;;;;;9.10;8.10;;;;;;;14.33;100.00;96145.59;1023971;28;20495;-66
2021/06/07 01:34:24;;;;;;;9.77;7.53;;;;;;;14.31;100.00;96139.78;1018437;29;20028;-65
2021/06/07 01:34:55;;;;;;;10.70;8.43;;;;;;;14.35;100.00;96142.66;1022593;29;20086;-67
2021/06/07 01:35:26;;;;;;;10.07;7.80;;;;;;;14.34;100.00;96152.44;1018489;29;20086;-64
2021/06/07 01:35:58;;;;;;;8.50;7.45;;;;;;;14.35;100.00;96154.03;1022654;29;20023;-66
2021/06/07 01:36:28;;;;;;;10.98;7.65;;;;;;;14.35;100.00;96148.75;1017536;29;20036;-66
2021/06/07 01:37:02;;;;;;;7.65;6.88;;;;;;;14.34;100.00;96149.81;1022535;29;20110;-67
2021/06/07 01:37:33;;;;;;;11.38;8.10;;;;;;;14.34;100.00;96149.81;1022428;28;20031;-66
2021/06/07 01:38:03;;;;;;;8.02;7.22;;;;;;;14.33;100.00;96145.59;1018378;29;20517;-66
2021/06/07 01:38:34;;;;;;;9.02;7.63;;;;;;;14.33;100.00;96150.88;1014601;29;20047;-66
2021/06/07 01:39:05;;;;;;;10.70;8.52;;;;;;;14.36;100.00;96150.31;1018522;29;20023;-64
2021/06/07 01:39:39;;;;;;;9.68;8.30;;;;;;;14.37;100.00;96149.25;1019328;29;20036;-65
2021/06/07 01:40:12;;;;;;;10.40;8.02;;;;;;;14.38;100.00;96153.50;1018573;29;20070;-67
2021/06/07 01:40:50;;;;;;;10.73;8.57;;;;;;;14.36;100.00;96147.69;1022357;29;20054;-66
2021/06/07 01:41:21;;;;;;;10.35;8.23;;;;;;;14.38;100.00;96150.03;1025385;28;20026;-67
2021/06/07 01:41:52;;;;;;;14.50;10.07;;;;;;;14.37;100.00;96146.63;1026262;28;20114;-66
2021/06/07 01:42:23;;;;;;;14.77;8.77;;;;;;;14.38;100.00;96147.41;1021191;28;20027;-66
2021/06/07 01:42:56;;;;;;;19.20;11.38;;;;;;;14.38;100.00;96150.03;1018542;29;20119;-66
2021/06/07 01:43:27;;;;;;;15.95;8.85;;;;;;;14.39;100.00;96151.63;1019459;29;20078;-65
2021/06/07 01:43:57;;;;;;;15.73;9.63;;;;;;;14.36;100.00;96145.06;1020570;29;20027;-67
2021/06/07 01:44:31;;;;;;;11.18;7.43;;;;;;;14.37;100.00;96146.63;1020077;29;20567;-66
2021/06/07 01:45:03;;;;;;;10.43;7.60;;;;;;;14.39;100.00;96149.78;1021099;28;20524;-65
2021/06/07 01:45:38;;;;;;;9.27;7.60;;;;;;;14.37;100.00;96151.13;1026524;28;20080;-66
2021/06/07 01:46:08;;;;;;;9.80;7.95;;;;;;;14.39;100.00;96143.72;1026515;28;20126;-65
2021/06/07 01:46:39;;;;;;;7.88;7.07;;;;;;;14.39;100.00;96149.78;1030228;28;20038;-65
2021/06/07 01:47:09;;;;;;;9.10;7.25;;;;;;;14.37;100.00;96141.34;1022354;29;20032;-66
2021/06/07 01:47:43;;;;;;;14.70;8.27;;;;;;;14.39;100.00;96139.22;1022599;28;20054;-66
2021/06/07 01:48:14;;;;;;;17.35;7.82;;;;;;;14.41;100.00;96144.22;1029749;28;20121;-66
2021/06/07 01:48:44;;;;;;;18.35;10.85;;;;;;;14.40;100.00;96145.28;1022491;29;20039;-66
2021/06/07 01:49:16;;;;;;;14.77;10.50;;;;;;;14.39;100.00;96144.50;1016229;29;20037;-66
2021/06/07 01:49:47;;;;;;;13.23;9.35;;;;;;;14.35;100.00;96140.84;1026536;28;20029;-66
2021/06/07 01:50:18;;;;;;;9.80;7.35;;;;;;;14.41;100.00;96146.06;1026319;28;20034;-67
2021/06/07 01:50:49;;;;;;;13.65;8.32;;;;;;;14.41;100.00;96140.78;1022340;29;20027;-67
2021/06/07 01:51:20;;;;;;;13.02;7.60;;;;;;;14.39;100.00;96136.56;1029878;28;20037;-67
2021/06/07 01:51:50;;;;;;;13.68;7.68;;;;;;;14.42;100.00;96142.34;1026274;28;20070;-66
2021/06/07 01:52:21;;;;;;;13.15;8.73;;;;;;;14.42;100.00;96147.63;1026570;28;20478;-67
2021/06/07 01:52:51;;;;;;;12.93;8.63;;;;;;;14.43;100.00;96143.94;1026308;28;20027;-65
2021/06/07 01:53:23;;;;;;;17.17;9.23;;;;;;;14.43;100.00;96143.94;1018293;28;20024;-66
2021/06/07 01:53:53;;;;;;;11.93;8.93;;;;;;;14.43;100.00;96143.94;1022473;28;20114;-67
2021/06/07 01:54:24;;;;;;;14.60;9.70;;;;;;;14.41;100.00;96136.28;1024285;28;20023;-67
2021/06/07 01:54:54;;;;;;;13.95;9.65;;;;;;;14.34;100.00;96133.19;1022640;29;20047;-67
2021/06/07 01:55:29;;;;;;;17.45;9.88;;;;;;;14.42;100.00;96147.63;1021512;29;20019;-66
2021/06/07 01:56:03;;;;;;;12.00;8.57;;;;;;;14.42;100.00;96135.25;1029675;28;20041;-66
2021/06/07 01:56:35;;;;;;;17.20;8.32;;;;;;;14.45;100.00;96147.09;1034533;28;20044;-66
2021/06/07 01:57:06;;;;;;;17.13;8.43;;;;;;;14.46;100.00;96138.13;1026330;28;20039;-66
2021/06/07 01:57:36;;;;;;;21.08;8.57;;;;;;;14.46;100.00;96135.47;1030527;28;20538;-66
2021/06/07 01:58:08;;;;;;;11.90;8.95;;;;;;;14.43;100.00;96133.38;1022349;28;20022;-66
2021/06/07 01:58:39;;;;;;;11.93;7.88;;;;;;;14.46;100.00;96143.41;1022555;29;20026;-66
2021/06/07 01:59:09;;;;;;;14.82;8.48;;;;;;;14.45;100.00;96139.94;1026275;28;20022;-67
2021/06/07 01:59:40;;;;;;;12.52;8.68;;;;;;;14.44;100.00;96138.38;1025612;28;21327;-67
2021/06/07 02:00:32;;;;;;;14.38;7.75;;;;;;;14.49;100.00;96141.00;1018563;29;20035;-66
2021/06/07 02:01:14;;;;;;;10.25;8.48;;;;;;;14.51;100.00;96136.22;1022098;29;20027;-66
2021/06/07 02:01:44;;;;;;;11.70;8.65;;;;;;;14.49;100.00;96137.56;1019204;28;20396;-66
2021/06/07 02:02:15;;;;;;;13.52;9.45;;;;;;;14.46;100.00;96132.84;1022693;29;20028;-66
2021/06/07 02:02:46;;;;;;;13.73;8.85;;;;;;;14.46;100.00;96133.63;1018610;29;20024;-66
2021/06/07 02:03:17;;;;;;;12.77;8.95;;;;;;;14.43;100.00;96139.44;1023546;28;20359;-66
2021/06/07 02:03:48;;;;;;;14.45;9.93;;;;;;;14.42;100.00;96135.25;1018318;29;20055;-66
2021/06/07 02:04:18;;;;;;;12.90;8.38;;;;;;;14.45;100.00;96141.81;1014869;29;20542;-67
2021/06/07 02:04:49;;;;;;;14.15;9.30;;;;;;;14.44;100.00;96140.25;1021191;29;20015;-66
2021/06/07 02:05:26;;;;;;;15.88;10.30;;;;;;;14.45;100.00;96141.81;1014816;29;20028;-66
2021/06/07 02:05:59;;;;;;;17.67;10.95;;;;;;;14.46;100.00;96138.13;1022509;29;20424;-66
2021/06/07 02:06:29;;;;;;;23.92;13.60;;;;;;;14.42;100.00;96137.06;1018170;29;20020;-66
2021/06/07 02:07:00;;;;;;;15.10;10.27;;;;;;;14.47;100.00;96140.47;1022501;29;20024;-66
2021/06/07 02:07:31;;;;;;;15.57;10.25;;;;;;;14.47;100.00;96139.69;1018537;29;20409;-66
2021/06/07 02:08:08;;;;;;;15.90;10.10;;;;;;;14.49;100.00;96141.00;1019851;28;20031;-66
2021/06/07 02:08:39;;;;;;;20.05;12.90;;;;;;;14.48;100.00;96142.03;1022703;29;20312;-67
2021/06/07 02:09:10;;;;;;;14.18;10.07;;;;;;;14.48;100.00;96142.03;1026185;28;20031;-67
2021/06/07 02:09:40;;;;;;;12.00;9.40;;;;;;;14.46;100.00;96141.53;1028514;28;20034;-67
2021/06/07 02:10:12;;;;;;;12.32;9.65;;;;;;;14.44;100.00;96143.66;1022173;28;20114;-66
2021/06/07 02:10:49;;;;;;;14.80;10.13;;;;;;;14.46;100.00;96141.53;1018521;29;20381;-65
2021/06/07 02:11:26;;;;;;;10.50;8.77;;;;;;;14.48;100.00;96146.53;1025743;28;20050;-67
2021/06/07 02:11:56;;;;;;;14.43;10.13;;;;;;;14.48;100.00;96141.25;1026042;28;20460;-66
2021/06/07 02:12:27;;;;;;;16.70;10.82;;;;;;;14.43;100.00;96141.31;1022583;29;20034;-67
2021/06/07 02:12:58;;;;;;;17.50;11.45;;;;;;;14.42;100.00;96139.72;1014682;29;20424;-67
2021/06/07 02:13:28;;;;;;;12.57;9.70;;;;;;;14.44;100.00;96141.03;1022336;28;20050;-66
2021/06/07 02:14:03;;;;;;;14.02;10.60;;;;;;;14.46;100.00;96141.53;1018419;29;20114;-66
2021/06/07 02:14:34;;;;;;;15.40;10.52;;;;;;;14.46;100.00;96143.41;1022464;29;20500;-66
2021/06/07 02:15:06;;;;;;;15.98;10.88;;;;;;;14.47;100.00;96142.31;1022130;29;20054;-65
2021/06/07 02:15:37;;;;;;;17.00;11.52;;;;;;;14.47;100.00;96144.97;1026557;28;20030;-66
2021/06/07 02:16:18;;;;;;;14.38;9.40;;;;;;;14.48;100.00;96146.53;1020709;29;20019;-66
2021/06/07 02:16:49;;;;;;;37.03;16.30;;;;;;;14.51;100.00;96149.44;1018228;29;20829;-67
2021/06/07 02:17:20;;;;;;;26.05;13.30;;;;;;;14.50;100.00;96139.94;1022525;29;20055;-66
2021/06/07 02:17:50;;;;;;;35.88;15.63;;;;;;;14.51;100.00;96143.38;1026510;28;20069;-66
2021/06/07 02:18:23;;;;;;;32.50;16.20;;;;;;;14.51;100.00;96140.72;1022157;28;20065;-66
2021/06/07 02:18:54;;;;;;;27.33;15.98;;;;;;;14.50;100.00;96144.41;1026403;28;20141;-66
2021/06/07 02:19:24;;;;;;;26.02;14.63;;;;;;;14.48;100.00;96141.25;1018623;29;20055;-66
2021/06/07 02:19:54;;;;;;;28.15;15.95;;;;;;;14.49;100.00;96148.91;1022564;28;20070;-66
2021/06/07 02:20:25;;;;;;;15.90;12.80;;;;;;;14.48;100.00;96146.53;1017875;29;20032;-66
2021/06/07 02:20:56;;;;;;;18.52;12.65;;;;;;;14.51;100.00;96140.72;1025589;28;20066;-67
2021/06/07 02:21:26;;;;;;;16.20;12.52;;;;;;;14.50;100.00;96141.78;1026189;28;20026;-66
2021/06/07 02:21:57;;;;;;;17.10;12.50;;;;;;;14.51;100.00;96140.72;1016828;29;20477;-66
2021/06/07 02:22:34;;;;;;;15.30;11.25;;;;;;;14.52;100.00;96142.28;1018419;29;20570;-66
2021/06/07 02:23:05;;;;;;;19.75;12.82;;;;;;;14.52;100.00;96143.09;1018452;29;20019;-64
2021/06/07 02:23:35;;;;;;;15.18;11.23;;;;;;;14.45;100.00;96133.88;1027644;28;20438;-67
2021/06/07 02:24:07;;;;;;;15.73;12.18;;;;;;;14.48;100.00;96136.75;1022756;28;20074;-67
2021/06/07 02:24:38;;;;;;;14.18;11.43;;;;;;;14.50;100.00;96139.94;1023285;28;20027;-66
2021/06/07 02:25:10;;;;;;;16.83;10.60;;;;;;;14.49;100.00;96140.22;1021954;29;20027;-67
2021/06/07 02:25:40;;;;;;;15.48;11.80;;;;;;;14.49;100.00;96142.84;1022397;28;20027;-66